sensor_id;sensor_type;location;lat;lon;timestamp;temperature;humidity
13488;DHT22;6816;48.506;9.050;2023-09-19T00:00:57;18.60;99.90
13488;DHT22;6816;48.506;9.050;2023-09-19T00:03:58;18.60;99.90
13488;DHT22;6816;48.506;9.050;2023-09-19T00:06:59;18.70;99.90
13488;DHT22;6816;48.506;9.050;2023-09-19T00:10:03;18.60;99.90
13488;DHT22;6816;48.506;9.050;2023-09-19T00:13:05;18.60;99.90
13488;DHT22;6816;48.506;9.050;2023-09-19T00:16:10;18.50;99.90
13488;DHT22;6816;48.506;9.050;2023-09-19T00:19:14;18.60;99.90
13488;DHT22;6816;48.506;9.050;2023-09-19T00:22:16;18.50;99.90
13488;DHT22;6816;48.506;9.050;2023-09-19T00:25:20;18.70;99.90
13488;DHT22;6816;48.506;9.050;2023-09-19T00:28:21;18.50;99.90
13488;DHT22;6816;48.506;9.050;2023-09-19T00:31:21;18.50;99.90
13488;DHT22;6816;48.506;9.050;2023-09-19T00:34:25;18.50;99.90
13488;DHT22;6816;48.506;9.050;2023-09-19T00:37:26;18.50;99.90
13488;DHT22;6816;48.506;9.050;2023-09-19T00:40:26;18.60;99.90
13488;DHT22;6816;48.506;9.050;2023-09-19T00:43:27;18.50;99.90
13488;DHT22;6816;48.506;9.050;2023-09-19T00:46:28;18.60;99.90
13488;DHT22;6816;48.506;9.050;2023-09-19T00:49:29;18.50;99.90
13488;DHT22;6816;48.506;9.050;2023-09-19T00:52:31;18.60;99.90
13488;DHT22;6816;48.506;9.050;2023-09-19T00:55:32;18.50;99.90
13488;DHT22;6816;48.506;9.050;2023-09-19T00:58:34;18.50;99.90
13488;DHT22;6816;48.506;9.050;2023-09-19T01:01:35;18.50;99.90
13488;DHT22;6816;48.506;9.050;2023-09-19T01:04:40;18.50;99.90
13488;DHT22;6816;48.506;9.050;2023-09-19T01:07:41;18.50;99.90
13488;DHT22;6816;48.506;9.050;2023-09-19T01:10:52;18.50;99.90
13488;DHT22;6816;48.506;9.050;2023-09-19T01:14:15;18.50;99.90
13488;DHT22;6816;48.506;9.050;2023-09-19T01:17:25;18.40;99.90
13488;DHT22;6816;48.506;9.050;2023-09-19T01:24:15;18.50;99.90
13488;DHT22;6816;48.506;9.050;2023-09-19T01:30:44;18.40;99.90
13488;DHT22;6816;48.506;9.050;2023-09-19T01:33:57;18.40;99.90
13488;DHT22;6816;48.506;9.050;2023-09-19T01:36:58;18.40;99.90
13488;DHT22;6816;48.506;9.050;2023-09-19T01:40:01;18.40;99.90
13488;DHT22;6816;48.506;9.050;2023-09-19T01:43:26;18.30;99.90
13488;DHT22;6816;48.506;9.050;2023-09-19T01:46:34;18.40;99.90
13488;DHT22;6816;48.506;9.050;2023-09-19T01:49:56;18.30;99.90
13488;DHT22;6816;48.506;9.050;2023-09-19T01:53:25;18.30;99.90
13488;DHT22;6816;48.506;9.050;2023-09-19T01:56:59;18.30;99.90
13488;DHT22;6816;48.506;9.050;2023-09-19T02:00:10;18.30;99.90
13488;DHT22;6816;48.506;9.050;2023-09-19T02:03:12;18.30;99.90
13488;DHT22;6816;48.506;9.050;2023-09-19T02:06:17;18.40;99.90
13488;DHT22;6816;48.506;9.050;2023-09-19T02:09:19;18.20;99.90
13488;DHT22;6816;48.506;9.050;2023-09-19T02:12:19;18.30;99.90
13488;DHT22;6816;48.506;9.050;2023-09-19T02:15:20;18.30;99.90
13488;DHT22;6816;48.506;9.050;2023-09-19T02:18:21;18.10;99.90
13488;DHT22;6816;48.506;9.050;2023-09-19T02:21:22;18.10;99.90
13488;DHT22;6816;48.506;9.050;2023-09-19T02:24:23;18.10;99.90
13488;DHT22;6816;48.506;9.050;2023-09-19T02:27:27;18.10;99.90
13488;DHT22;6816;48.506;9.050;2023-09-19T02:30:28;18.10;99.90
13488;DHT22;6816;48.506;9.050;2023-09-19T02:33:29;18.00;99.90
13488;DHT22;6816;48.506;9.050;2023-09-19T02:36:33;17.90;99.90
13488;DHT22;6816;48.506;9.050;2023-09-19T02:39:33;17.90;99.90
13488;DHT22;6816;48.506;9.050;2023-09-19T02:42:34;18.00;99.90
13488;DHT22;6816;48.506;9.050;2023-09-19T02:45:35;17.90;99.90
13488;DHT22;6816;48.506;9.050;2023-09-19T02:48:35;17.80;99.90
13488;DHT22;6816;48.506;9.050;2023-09-19T02:51:36;17.80;99.90
13488;DHT22;6816;48.506;9.050;2023-09-19T02:54:37;17.80;99.90
13488;DHT22;6816;48.506;9.050;2023-09-19T02:57:38;17.80;99.90
13488;DHT22;6816;48.506;9.050;2023-09-19T03:00:42;17.70;99.90
13488;DHT22;6816;48.506;9.050;2023-09-19T03:03:42;17.70;99.90
13488;DHT22;6816;48.506;9.050;2023-09-19T03:06:43;17.70;99.90
13488;DHT22;6816;48.506;9.050;2023-09-19T03:09:45;17.70;99.90
13488;DHT22;6816;48.506;9.050;2023-09-19T03:12:46;17.70;99.90
13488;DHT22;6816;48.506;9.050;2023-09-19T03:15:47;17.70;99.90
13488;DHT22;6816;48.506;9.050;2023-09-19T03:18:51;17.70;99.90
13488;DHT22;6816;48.506;9.050;2023-09-19T03:21:52;17.80;99.90
13488;DHT22;6816;48.506;9.050;2023-09-19T03:24:53;17.80;99.90
13488;DHT22;6816;48.506;9.050;2023-09-19T03:27:56;17.80;99.90
13488;DHT22;6816;48.506;9.050;2023-09-19T03:31:04;17.80;99.90
13488;DHT22;6816;48.506;9.050;2023-09-19T03:34:05;17.90;99.90
13488;DHT22;6816;48.506;9.050;2023-09-19T03:37:06;17.90;99.90
13488;DHT22;6816;48.506;9.050;2023-09-19T03:40:08;17.90;99.90
13488;DHT22;6816;48.506;9.050;2023-09-19T03:43:10;17.90;99.90
13488;DHT22;6816;48.506;9.050;2023-09-19T03:46:11;18.10;99.90
13488;DHT22;6816;48.506;9.050;2023-09-19T03:49:13;18.00;99.90
13488;DHT22;6816;48.506;9.050;2023-09-19T03:52:13;18.10;99.90
13488;DHT22;6816;48.506;9.050;2023-09-19T03:55:15;18.20;99.90
13488;DHT22;6816;48.506;9.050;2023-09-19T03:58:16;18.10;99.90
13488;DHT22;6816;48.506;9.050;2023-09-19T04:01:16;18.20;99.90
13488;DHT22;6816;48.506;9.050;2023-09-19T04:04:18;18.20;99.90
13488;DHT22;6816;48.506;9.050;2023-09-19T04:07:19;18.20;99.90
13488;DHT22;6816;48.506;9.050;2023-09-19T04:10:22;18.20;99.90
13488;DHT22;6816;48.506;9.050;2023-09-19T04:13:23;18.20;99.90
13488;DHT22;6816;48.506;9.050;2023-09-19T04:16:24;18.20;99.90
13488;DHT22;6816;48.506;9.050;2023-09-19T04:19:24;18.20;99.90
13488;DHT22;6816;48.506;9.050;2023-09-19T04:22:25;18.20;99.90
13488;DHT22;6816;48.506;9.050;2023-09-19T04:25:26;18.20;99.90
13488;DHT22;6816;48.506;9.050;2023-09-19T04:28:28;18.20;99.90
13488;DHT22;6816;48.506;9.050;2023-09-19T04:31:28;18.10;99.90
13488;DHT22;6816;48.506;9.050;2023-09-19T04:34:30;18.20;99.90
13488;DHT22;6816;48.506;9.050;2023-09-19T04:37:31;18.20;99.90
13488;DHT22;6816;48.506;9.050;2023-09-19T04:40:31;18.10;99.90
13488;DHT22;6816;48.506;9.050;2023-09-19T04:43:34;18.00;99.90
13488;DHT22;6816;48.506;9.050;2023-09-19T04:46:34;18.00;99.90
13488;DHT22;6816;48.506;9.050;2023-09-19T04:49:35;18.00;99.90
13488;DHT22;6816;48.506;9.050;2023-09-19T04:52:36;17.90;99.90
13488;DHT22;6816;48.506;9.050;2023-09-19T04:55:37;17.90;99.90
13488;DHT22;6816;48.506;9.050;2023-09-19T04:58:37;17.90;99.90
13488;DHT22;6816;48.506;9.050;2023-09-19T05:01:38;17.90;99.90
13488;DHT22;6816;48.506;9.050;2023-09-19T05:04:39;17.80;99.90
13488;DHT22;6816;48.506;9.050;2023-09-19T05:07:39;17.80;99.90
13488;DHT22;6816;48.506;9.050;2023-09-19T05:10:41;17.80;99.90
13488;DHT22;6816;48.506;9.050;2023-09-19T05:13:41;17.80;99.90
13488;DHT22;6816;48.506;9.050;2023-09-19T05:16:43;17.80;99.90
13488;DHT22;6816;48.506;9.050;2023-09-19T05:19:44;17.80;99.90
13488;DHT22;6816;48.506;9.050;2023-09-19T05:22:46;17.80;99.90
13488;DHT22;6816;48.506;9.050;2023-09-19T05:25:46;17.80;99.90
13488;DHT22;6816;48.506;9.050;2023-09-19T05:28:47;17.80;99.90
13488;DHT22;6816;48.506;9.050;2023-09-19T05:31:50;18.00;99.90
13488;DHT22;6816;48.506;9.050;2023-09-19T05:34:51;17.80;99.90
13488;DHT22;6816;48.506;9.050;2023-09-19T05:37:57;17.90;99.90
13488;DHT22;6816;48.506;9.050;2023-09-19T05:40:58;18.00;99.90
13488;DHT22;6816;48.506;9.050;2023-09-19T05:43:59;17.90;99.90
13488;DHT22;6816;48.506;9.050;2023-09-19T05:47:03;18.00;99.90
13488;DHT22;6816;48.506;9.050;2023-09-19T05:50:04;17.90;99.90
13488;DHT22;6816;48.506;9.050;2023-09-19T05:53:07;18.10;99.90
13488;DHT22;6816;48.506;9.050;2023-09-19T05:56:08;18.10;99.90
13488;DHT22;6816;48.506;9.050;2023-09-19T05:59:09;18.20;99.90
13488;DHT22;6816;48.506;9.050;2023-09-19T06:02:14;18.20;99.90
13488;DHT22;6816;48.506;9.050;2023-09-19T06:05:15;18.20;99.90
13488;DHT22;6816;48.506;9.050;2023-09-19T06:08:17;18.30;99.90
13488;DHT22;6816;48.506;9.050;2023-09-19T06:11:18;18.40;99.90
13488;DHT22;6816;48.506;9.050;2023-09-19T06:14:20;18.40;99.90
13488;DHT22;6816;48.506;9.050;2023-09-19T06:17:25;18.40;99.90
13488;DHT22;6816;48.506;9.050;2023-09-19T06:20:27;18.50;99.90
13488;DHT22;6816;48.506;9.050;2023-09-19T06:23:28;18.40;99.90
13488;DHT22;6816;48.506;9.050;2023-09-19T06:26:29;18.50;99.90
13488;DHT22;6816;48.506;9.050;2023-09-19T06:29:32;18.50;99.90
13488;DHT22;6816;48.506;9.050;2023-09-19T06:33:21;18.40;99.90
13488;DHT22;6816;48.506;9.050;2023-09-19T06:36:39;18.60;99.90
13488;DHT22;6816;48.506;9.050;2023-09-19T06:39:44;18.70;99.90
13488;DHT22;6816;48.506;9.050;2023-09-19T06:42:50;18.70;99.90
13488;DHT22;6816;48.506;9.050;2023-09-19T06:45:54;18.70;99.90
13488;DHT22;6816;48.506;9.050;2023-09-19T06:48:58;18.70;99.90
13488;DHT22;6816;48.506;9.050;2023-09-19T06:52:01;18.60;99.90
13488;DHT22;6816;48.506;9.050;2023-09-19T06:55:27;18.80;99.90
13488;DHT22;6816;48.506;9.050;2023-09-19T06:58:32;18.90;99.90
13488;DHT22;6816;48.506;9.050;2023-09-19T07:02:30;19.00;99.90
13488;DHT22;6816;48.506;9.050;2023-09-19T07:05:38;19.10;99.90
13488;DHT22;6816;48.506;9.050;2023-09-19T07:08:39;19.20;99.90
13488;DHT22;6816;48.506;9.050;2023-09-19T07:11:40;19.20;99.90
13488;DHT22;6816;48.506;9.050;2023-09-19T07:14:42;19.30;99.90
13488;DHT22;6816;48.506;9.050;2023-09-19T07:17:43;19.30;99.90
13488;DHT22;6816;48.506;9.050;2023-09-19T07:20:46;19.40;99.90
13488;DHT22;6816;48.506;9.050;2023-09-19T07:23:51;19.50;99.90
13488;DHT22;6816;48.506;9.050;2023-09-19T07:26:52;19.40;99.90
13488;DHT22;6816;48.506;9.050;2023-09-19T07:29:53;19.50;99.90
13488;DHT22;6816;48.506;9.050;2023-09-19T07:32:54;19.70;99.90
13488;DHT22;6816;48.506;9.050;2023-09-19T07:35:55;19.60;99.90
13488;DHT22;6816;48.506;9.050;2023-09-19T07:38:55;19.70;99.90
13488;DHT22;6816;48.506;9.050;2023-09-19T07:41:58;19.60;99.90
13488;DHT22;6816;48.506;9.050;2023-09-19T07:45:01;19.80;99.90
13488;DHT22;6816;48.506;9.050;2023-09-19T07:48:01;19.80;99.90
13488;DHT22;6816;48.506;9.050;2023-09-19T07:51:07;19.80;99.90
13488;DHT22;6816;48.506;9.050;2023-09-19T07:54:08;19.90;99.90
13488;DHT22;6816;48.506;9.050;2023-09-19T07:57:11;19.90;99.90
13488;DHT22;6816;48.506;9.050;2023-09-19T08:00:12;19.90;99.90
13488;DHT22;6816;48.506;9.050;2023-09-19T08:03:13;19.80;99.90
13488;DHT22;6816;48.506;9.050;2023-09-19T08:06:15;19.80;99.90
13488;DHT22;6816;48.506;9.050;2023-09-19T08:09:17;19.80;99.90
13488;DHT22;6816;48.506;9.050;2023-09-19T08:12:21;19.70;99.90
13488;DHT22;6816;48.506;9.050;2023-09-19T08:15:24;19.80;99.90
13488;DHT22;6816;48.506;9.050;2023-09-19T08:18:25;19.80;99.90
13488;DHT22;6816;48.506;9.050;2023-09-19T08:21:26;19.80;99.90
13488;DHT22;6816;48.506;9.050;2023-09-19T08:24:30;19.80;99.90
13488;DHT22;6816;48.506;9.050;2023-09-19T08:27:31;19.70;99.90
13488;DHT22;6816;48.506;9.050;2023-09-19T08:30:31;19.70;99.90
13488;DHT22;6816;48.506;9.050;2023-09-19T08:33:36;19.80;99.90
13488;DHT22;6816;48.506;9.050;2023-09-19T08:36:36;19.80;99.90
13488;DHT22;6816;48.506;9.050;2023-09-19T08:39:38;19.80;99.90
13488;DHT22;6816;48.506;9.050;2023-09-19T08:42:49;19.90;99.90
13488;DHT22;6816;48.506;9.050;2023-09-19T08:45:54;20.00;99.90
13488;DHT22;6816;48.506;9.050;2023-09-19T08:49:03;20.00;99.90
13488;DHT22;6816;48.506;9.050;2023-09-19T08:52:22;20.10;99.90
13488;DHT22;6816;48.506;9.050;2023-09-19T08:55:29;20.20;99.90
13488;DHT22;6816;48.506;9.050;2023-09-19T08:58:34;20.20;99.90
13488;DHT22;6816;48.506;9.050;2023-09-19T09:01:44;20.30;99.90
13488;DHT22;6816;48.506;9.050;2023-09-19T09:04:46;20.40;99.90
13488;DHT22;6816;48.506;9.050;2023-09-19T09:07:47;20.40;99.90
13488;DHT22;6816;48.506;9.050;2023-09-19T09:10:50;20.50;99.90
13488;DHT22;6816;48.506;9.050;2023-09-19T09:13:51;20.50;99.90
13488;DHT22;6816;48.506;9.050;2023-09-19T09:16:52;20.60;99.90
13488;DHT22;6816;48.506;9.050;2023-09-19T09:19:56;20.70;99.90
13488;DHT22;6816;48.506;9.050;2023-09-19T09:22:57;20.80;99.90
13488;DHT22;6816;48.506;9.050;2023-09-19T09:26:04;20.90;99.90
13488;DHT22;6816;48.506;9.050;2023-09-19T09:29:06;21.00;99.90
13488;DHT22;6816;48.506;9.050;2023-09-19T09:32:26;21.00;99.90
13488;DHT22;6816;48.506;9.050;2023-09-19T09:35:29;21.00;99.90
13488;DHT22;6816;48.506;9.050;2023-09-19T09:38:42;21.10;99.90
13488;DHT22;6816;48.506;9.050;2023-09-19T09:41:43;21.00;99.90
13488;DHT22;6816;48.506;9.050;2023-09-19T09:44:44;21.10;99.90
13488;DHT22;6816;48.506;9.050;2023-09-19T09:47:48;21.00;99.90
13488;DHT22;6816;48.506;9.050;2023-09-19T09:50:58;21.00;99.90
13488;DHT22;6816;48.506;9.050;2023-09-19T09:54:14;21.20;99.90
13488;DHT22;6816;48.506;9.050;2023-09-19T09:57:19;21.20;99.90
13488;DHT22;6816;48.506;9.050;2023-09-19T10:00:24;21.30;99.90
13488;DHT22;6816;48.506;9.050;2023-09-19T10:03:36;21.20;99.90
13488;DHT22;6816;48.506;9.050;2023-09-19T10:06:41;21.30;99.90
13488;DHT22;6816;48.506;9.050;2023-09-19T10:09:47;21.30;99.90
13488;DHT22;6816;48.506;9.050;2023-09-19T10:12:49;21.30;99.90
13488;DHT22;6816;48.506;9.050;2023-09-19T10:15:56;21.30;99.90
13488;DHT22;6816;48.506;9.050;2023-09-19T10:19:02;21.30;99.90
13488;DHT22;6816;48.506;9.050;2023-09-19T10:22:07;21.40;99.90
13488;DHT22;6816;48.506;9.050;2023-09-19T10:25:10;21.40;99.90
13488;DHT22;6816;48.506;9.050;2023-09-19T10:28:14;21.50;99.90
13488;DHT22;6816;48.506;9.050;2023-09-19T10:31:19;21.60;99.90
13488;DHT22;6816;48.506;9.050;2023-09-19T10:34:22;21.70;99.90
13488;DHT22;6816;48.506;9.050;2023-09-19T10:37:24;21.80;99.90
13488;DHT22;6816;48.506;9.050;2023-09-19T10:40:27;21.80;99.90
13488;DHT22;6816;48.506;9.050;2023-09-19T10:43:32;21.90;99.90
13488;DHT22;6816;48.506;9.050;2023-09-19T10:46:33;22.00;99.90
13488;DHT22;6816;48.506;9.050;2023-09-19T10:49:33;22.10;99.90
13488;DHT22;6816;48.506;9.050;2023-09-19T10:52:40;22.20;99.90
13488;DHT22;6816;48.506;9.050;2023-09-19T10:55:52;22.30;99.90
13488;DHT22;6816;48.506;9.050;2023-09-19T10:59:12;22.30;99.90
13488;DHT22;6816;48.506;9.050;2023-09-19T11:02:17;22.40;99.90
13488;DHT22;6816;48.506;9.050;2023-09-19T11:05:18;22.50;99.90
13488;DHT22;6816;48.506;9.050;2023-09-19T11:08:19;22.60;99.90
13488;DHT22;6816;48.506;9.050;2023-09-19T11:14:41;22.80;98.20
13488;DHT22;6816;48.506;9.050;2023-09-19T11:17:43;22.90;99.90
13488;DHT22;6816;48.506;9.050;2023-09-19T11:20:47;22.90;99.90
13488;DHT22;6816;48.506;9.050;2023-09-19T11:27:12;23.00;97.30
13488;DHT22;6816;48.506;9.050;2023-09-19T11:30:27;23.10;99.60
13488;DHT22;6816;48.506;9.050;2023-09-19T11:33:29;23.20;96.50
13488;DHT22;6816;48.506;9.050;2023-09-19T11:36:39;23.20;99.10
13488;DHT22;6816;48.506;9.050;2023-09-19T11:40:06;23.30;98.70
13488;DHT22;6816;48.506;9.050;2023-09-19T11:43:29;23.30;95.60
13488;DHT22;6816;48.506;9.050;2023-09-19T11:46:33;23.40;96.00
13488;DHT22;6816;48.506;9.050;2023-09-19T11:49:33;23.40;97.50
13488;DHT22;6816;48.506;9.050;2023-09-19T11:52:35;23.40;97.70
13488;DHT22;6816;48.506;9.050;2023-09-19T11:55:41;23.40;97.30
13488;DHT22;6816;48.506;9.050;2023-09-19T11:58:45;23.40;96.20
13488;DHT22;6816;48.506;9.050;2023-09-19T12:01:51;23.40;97.10
13488;DHT22;6816;48.506;9.050;2023-09-19T12:04:57;23.30;95.50
13488;DHT22;6816;48.506;9.050;2023-09-19T12:08:00;23.40;96.80
13488;DHT22;6816;48.506;9.050;2023-09-19T12:11:01;23.50;96.40
13488;DHT22;6816;48.506;9.050;2023-09-19T12:14:02;23.50;96.40
13488;DHT22;6816;48.506;9.050;2023-09-19T12:17:04;23.50;96.00
13488;DHT22;6816;48.506;9.050;2023-09-19T12:20:05;23.60;95.70
13488;DHT22;6816;48.506;9.050;2023-09-19T12:23:17;23.60;95.50
13488;DHT22;6816;48.506;9.050;2023-09-19T12:26:18;23.70;95.40
13488;DHT22;6816;48.506;9.050;2023-09-19T12:29:20;23.70;95.30
13488;DHT22;6816;48.506;9.050;2023-09-19T12:32:36;23.70;94.60
13488;DHT22;6816;48.506;9.050;2023-09-19T12:35:40;23.70;92.00
13488;DHT22;6816;48.506;9.050;2023-09-19T12:38:47;23.80;94.80
13488;DHT22;6816;48.506;9.050;2023-09-19T12:41:49;23.80;93.00
13488;DHT22;6816;48.506;9.050;2023-09-19T12:44:52;23.90;94.60
13488;DHT22;6816;48.506;9.050;2023-09-19T12:48:22;23.90;94.40
13488;DHT22;6816;48.506;9.050;2023-09-19T12:51:35;23.90;91.60
13488;DHT22;6816;48.506;9.050;2023-09-19T12:54:40;24.00;93.00
13488;DHT22;6816;48.506;9.050;2023-09-19T12:57:40;24.00;93.10
13488;DHT22;6816;48.506;9.050;2023-09-19T13:00:43;24.10;94.30
13488;DHT22;6816;48.506;9.050;2023-09-19T13:03:45;24.20;93.90
13488;DHT22;6816;48.506;9.050;2023-09-19T13:06:47;24.20;94.20
13488;DHT22;6816;48.506;9.050;2023-09-19T13:10:05;24.30;94.10
13488;DHT22;6816;48.506;9.050;2023-09-19T13:13:23;24.40;91.60
13488;DHT22;6816;48.506;9.050;2023-09-19T13:16:28;24.40;91.00
13488;DHT22;6816;48.506;9.050;2023-09-19T13:19:39;24.40;93.60
13488;DHT22;6816;48.506;9.050;2023-09-19T13:22:44;24.40;91.30
13488;DHT22;6816;48.506;9.050;2023-09-19T13:25:49;24.40;92.00
13488;DHT22;6816;48.506;9.050;2023-09-19T13:28:50;24.40;93.10
13488;DHT22;6816;48.506;9.050;2023-09-19T13:31:51;24.50;93.00
13488;DHT22;6816;48.506;9.050;2023-09-19T13:34:53;24.50;92.80
13488;DHT22;6816;48.506;9.050;2023-09-19T13:37:53;24.50;92.70
13488;DHT22;6816;48.506;9.050;2023-09-19T13:40:54;24.50;92.50
13488;DHT22;6816;48.506;9.050;2023-09-19T13:43:55;24.50;92.50
13488;DHT22;6816;48.506;9.050;2023-09-19T13:46:57;24.50;92.30
13488;DHT22;6816;48.506;9.050;2023-09-19T13:49:58;24.50;92.10
13488;DHT22;6816;48.506;9.050;2023-09-19T13:52:59;24.50;92.00
13488;DHT22;6816;48.506;9.050;2023-09-19T13:56:00;24.50;92.00
13488;DHT22;6816;48.506;9.050;2023-09-19T13:59:01;24.50;91.90
13488;DHT22;6816;48.506;9.050;2023-09-19T14:02:02;24.50;92.10
13488;DHT22;6816;48.506;9.050;2023-09-19T14:05:06;24.60;92.20
13488;DHT22;6816;48.506;9.050;2023-09-19T14:08:07;24.70;91.90
13488;DHT22;6816;48.506;9.050;2023-09-19T14:11:08;24.70;91.70
13488;DHT22;6816;48.506;9.050;2023-09-19T14:14:08;24.80;91.40
13488;DHT22;6816;48.506;9.050;2023-09-19T14:17:09;24.80;91.00
13488;DHT22;6816;48.506;9.050;2023-09-19T14:20:10;24.80;90.90
13488;DHT22;6816;48.506;9.050;2023-09-19T14:23:11;24.80;90.60
13488;DHT22;6816;48.506;9.050;2023-09-19T14:26:12;24.80;90.40
13488;DHT22;6816;48.506;9.050;2023-09-19T14:29:13;24.80;90.30
13488;DHT22;6816;48.506;9.050;2023-09-19T14:32:14;24.70;90.10
13488;DHT22;6816;48.506;9.050;2023-09-19T14:35:15;24.70;90.00
13488;DHT22;6816;48.506;9.050;2023-09-19T14:38:16;24.70;89.90
13488;DHT22;6816;48.506;9.050;2023-09-19T14:41:17;24.70;90.00
13488;DHT22;6816;48.506;9.050;2023-09-19T14:44:18;24.70;89.70
13488;DHT22;6816;48.506;9.050;2023-09-19T14:47:18;24.70;89.20
13488;DHT22;6816;48.506;9.050;2023-09-19T14:50:19;24.70;88.90
13488;DHT22;6816;48.506;9.050;2023-09-19T14:53:19;24.60;88.20
13488;DHT22;6816;48.506;9.050;2023-09-19T14:56:20;24.60;88.20
13488;DHT22;6816;48.506;9.050;2023-09-19T14:59:22;24.60;88.10
13488;DHT22;6816;48.506;9.050;2023-09-19T15:02:23;24.50;88.10
13488;DHT22;6816;48.506;9.050;2023-09-19T15:05:23;24.50;88.10
13488;DHT22;6816;48.506;9.050;2023-09-19T15:08:25;24.50;87.80
13488;DHT22;6816;48.506;9.050;2023-09-19T15:11:25;24.50;87.70
13488;DHT22;6816;48.506;9.050;2023-09-19T15:14:26;24.50;87.50
13488;DHT22;6816;48.506;9.050;2023-09-19T15:17:26;24.50;87.60
13488;DHT22;6816;48.506;9.050;2023-09-19T15:20:27;24.40;87.80
13488;DHT22;6816;48.506;9.050;2023-09-19T15:23:27;24.40;87.40
13488;DHT22;6816;48.506;9.050;2023-09-19T15:26:29;24.40;87.40
13488;DHT22;6816;48.506;9.050;2023-09-19T15:29:30;24.40;87.10
13488;DHT22;6816;48.506;9.050;2023-09-19T15:32:31;24.40;86.90
13488;DHT22;6816;48.506;9.050;2023-09-19T15:35:32;24.30;86.80
13488;DHT22;6816;48.506;9.050;2023-09-19T15:41:57;24.30;80.70
13488;DHT22;6816;48.506;9.050;2023-09-19T15:44:57;24.30;86.70
13488;DHT22;6816;48.506;9.050;2023-09-19T15:47:58;24.30;86.80
13488;DHT22;6816;48.506;9.050;2023-09-19T15:51:03;24.30;86.50
13488;DHT22;6816;48.506;9.050;2023-09-19T15:54:12;24.20;83.70
13488;DHT22;6816;48.506;9.050;2023-09-19T15:57:15;24.20;84.00
13488;DHT22;6816;48.506;9.050;2023-09-19T16:00:16;24.20;85.60
13488;DHT22;6816;48.506;9.050;2023-09-19T16:03:17;24.20;85.60
13488;DHT22;6816;48.506;9.050;2023-09-19T16:06:21;24.20;85.50
13488;DHT22;6816;48.506;9.050;2023-09-19T16:09:23;24.10;84.20
13488;DHT22;6816;48.506;9.050;2023-09-19T16:12:24;24.10;85.20
13488;DHT22;6816;48.506;9.050;2023-09-19T16:15:24;24.10;85.20
13488;DHT22;6816;48.506;9.050;2023-09-19T16:18:26;24.00;85.20
13488;DHT22;6816;48.506;9.050;2023-09-19T16:21:27;24.00;85.00
13488;DHT22;6816;48.506;9.050;2023-09-19T16:24:28;24.00;85.20
13488;DHT22;6816;48.506;9.050;2023-09-19T16:27:29;24.00;85.30
13488;DHT22;6816;48.506;9.050;2023-09-19T16:30:32;23.90;85.80
13488;DHT22;6816;48.506;9.050;2023-09-19T16:33:38;23.90;83.90
13488;DHT22;6816;48.506;9.050;2023-09-19T16:36:42;23.90;84.50
13488;DHT22;6816;48.506;9.050;2023-09-19T16:39:43;23.80;84.60
13488;DHT22;6816;48.506;9.050;2023-09-19T16:42:45;23.80;84.40
13488;DHT22;6816;48.506;9.050;2023-09-19T16:46:00;23.80;84.00
13488;DHT22;6816;48.506;9.050;2023-09-19T16:49:01;23.70;79.50
13488;DHT22;6816;48.506;9.050;2023-09-19T16:52:04;23.60;83.60
13488;DHT22;6816;48.506;9.050;2023-09-19T16:55:05;23.50;83.40
13488;DHT22;6816;48.506;9.050;2023-09-19T16:58:06;23.50;83.50
13488;DHT22;6816;48.506;9.050;2023-09-19T17:01:10;23.40;83.60
13488;DHT22;6816;48.506;9.050;2023-09-19T17:04:11;23.30;83.40
13488;DHT22;6816;48.506;9.050;2023-09-19T17:07:12;23.20;83.50
13488;DHT22;6816;48.506;9.050;2023-09-19T17:10:12;23.10;83.70
13488;DHT22;6816;48.506;9.050;2023-09-19T17:13:13;23.00;83.70
13488;DHT22;6816;48.506;9.050;2023-09-19T17:16:15;22.90;83.80
13488;DHT22;6816;48.506;9.050;2023-09-19T17:19:20;22.80;83.70
13488;DHT22;6816;48.506;9.050;2023-09-19T17:22:23;22.60;83.90
13488;DHT22;6816;48.506;9.050;2023-09-19T17:25:23;22.50;84.10
13488;DHT22;6816;48.506;9.050;2023-09-19T17:28:25;22.30;84.10
13488;DHT22;6816;48.506;9.050;2023-09-19T17:31:26;22.20;84.40
13488;DHT22;6816;48.506;9.050;2023-09-19T17:34:26;22.10;84.60
13488;DHT22;6816;48.506;9.050;2023-09-19T17:37:27;22.00;84.70
13488;DHT22;6816;48.506;9.050;2023-09-19T17:40:28;21.80;84.70
13488;DHT22;6816;48.506;9.050;2023-09-19T17:43:30;21.70;84.90
13488;DHT22;6816;48.506;9.050;2023-09-19T17:46:31;21.60;85.30
13488;DHT22;6816;48.506;9.050;2023-09-19T17:49:34;21.50;85.40
13488;DHT22;6816;48.506;9.050;2023-09-19T17:52:35;21.40;85.50
13488;DHT22;6816;48.506;9.050;2023-09-19T17:55:39;21.30;85.80
13488;DHT22;6816;48.506;9.050;2023-09-19T17:58:40;21.20;85.00
13488;DHT22;6816;48.506;9.050;2023-09-19T18:01:42;21.10;86.00
13488;DHT22;6816;48.506;9.050;2023-09-19T18:04:45;20.90;86.30
13488;DHT22;6816;48.506;9.050;2023-09-19T18:07:46;20.80;86.20
13488;DHT22;6816;48.506;9.050;2023-09-19T18:10:48;20.70;86.40
13488;DHT22;6816;48.506;9.050;2023-09-19T18:13:49;20.60;86.70
13488;DHT22;6816;48.506;9.050;2023-09-19T18:16:51;20.50;86.90
13488;DHT22;6816;48.506;9.050;2023-09-19T18:19:56;20.40;87.10
13488;DHT22;6816;48.506;9.050;2023-09-19T18:22:57;20.30;87.40
13488;DHT22;6816;48.506;9.050;2023-09-19T18:25:58;20.30;87.60
13488;DHT22;6816;48.506;9.050;2023-09-19T18:28:59;20.20;87.60
13488;DHT22;6816;48.506;9.050;2023-09-19T18:32:00;20.10;88.00
13488;DHT22;6816;48.506;9.050;2023-09-19T18:35:01;20.00;88.20
13488;DHT22;6816;48.506;9.050;2023-09-19T18:38:03;19.90;88.50
13488;DHT22;6816;48.506;9.050;2023-09-19T18:41:08;19.90;88.80
13488;DHT22;6816;48.506;9.050;2023-09-19T18:44:08;19.80;88.30
13488;DHT22;6816;48.506;9.050;2023-09-19T18:47:10;19.70;89.30
13488;DHT22;6816;48.506;9.050;2023-09-19T18:50:12;19.60;89.70
13488;DHT22;6816;48.506;9.050;2023-09-19T18:53:13;19.50;89.80
13488;DHT22;6816;48.506;9.050;2023-09-19T18:56:14;19.50;90.00
13488;DHT22;6816;48.506;9.050;2023-09-19T18:59:15;19.40;90.10
13488;DHT22;6816;48.506;9.050;2023-09-19T19:02:15;19.40;90.70
13488;DHT22;6816;48.506;9.050;2023-09-19T19:05:17;19.40;90.50
13488;DHT22;6816;48.506;9.050;2023-09-19T19:08:17;19.30;90.60
13488;DHT22;6816;48.506;9.050;2023-09-19T19:11:19;19.30;90.60
13488;DHT22;6816;48.506;9.050;2023-09-19T19:14:21;19.40;90.80
13488;DHT22;6816;48.506;9.050;2023-09-19T19:17:22;19.30;90.80
13488;DHT22;6816;48.506;9.050;2023-09-19T19:20:24;19.30;90.90
13488;DHT22;6816;48.506;9.050;2023-09-19T19:23:25;19.40;90.90
13488;DHT22;6816;48.506;9.050;2023-09-19T19:26:28;19.20;91.00
13488;DHT22;6816;48.506;9.050;2023-09-19T19:29:28;19.20;91.00
13488;DHT22;6816;48.506;9.050;2023-09-19T19:32:29;19.20;91.00
13488;DHT22;6816;48.506;9.050;2023-09-19T19:35:29;19.10;91.10
13488;DHT22;6816;48.506;9.050;2023-09-19T19:38:33;19.20;91.10
13488;DHT22;6816;48.506;9.050;2023-09-19T19:41:35;19.00;91.10
13488;DHT22;6816;48.506;9.050;2023-09-19T19:44:38;19.00;91.10
13488;DHT22;6816;48.506;9.050;2023-09-19T19:47:39;18.90;91.20
13488;DHT22;6816;48.506;9.050;2023-09-19T19:50:40;18.90;91.30
13488;DHT22;6816;48.506;9.050;2023-09-19T19:53:42;18.90;91.40